sensor_id;sensor_type;location;lat;lon;timestamp;P1;durP1;ratioP1;P2;durP2;ratioP2
46931;SDS011;32670;51.464;11.964;2023-11-19T00:00:05;5.60;;;2.83;;
46931;SDS011;32670;51.464;11.964;2023-11-19T00:02:35;7.67;;;2.53;;
46931;SDS011;32670;51.464;11.964;2023-11-19T00:05:01;4.93;;;2.77;;
46931;SDS011;32670;51.464;11.964;2023-11-19T00:07:27;5.10;;;2.67;;
46931;SDS011;32670;51.464;11.964;2023-11-19T00:09:52;2.93;;;2.73;;
46931;SDS011;32670;51.464;11.964;2023-11-19T00:12:20;2.97;;;2.20;;
46931;SDS011;32670;51.464;11.964;2023-11-19T00:14:45;11.27;;;4.17;;
46931;SDS011;32670;51.464;11.964;2023-11-19T00:17:11;5.77;;;4.13;;
46931;SDS011;32670;51.464;11.964;2023-11-19T00:19:36;7.07;;;4.00;;
46931;SDS011;32670;51.464;11.964;2023-11-19T00:22:02;9.17;;;3.93;;
46931;SDS011;32670;51.464;11.964;2023-11-19T00:24:28;7.13;;;3.30;;
46931;SDS011;32670;51.464;11.964;2023-11-19T00:26:55;5.10;;;3.40;;
46931;SDS011;32670;51.464;11.964;2023-11-19T00:29:21;4.90;;;3.20;;
46931;SDS011;32670;51.464;11.964;2023-11-19T00:31:46;6.37;;;3.27;;
46931;SDS011;32670;51.464;11.964;2023-11-19T00:34:12;5.43;;;3.47;;
46931;SDS011;32670;51.464;11.964;2023-11-19T00:36:38;6.73;;;3.30;;
46931;SDS011;32670;51.464;11.964;2023-11-19T00:39:04;6.70;;;3.23;;
46931;SDS011;32670;51.464;11.964;2023-11-19T00:41:30;6.07;;;3.20;;
46931;SDS011;32670;51.464;11.964;2023-11-19T00:43:56;4.53;;;3.00;;
46931;SDS011;32670;51.464;11.964;2023-11-19T00:46:21;4.70;;;3.30;;
46931;SDS011;32670;51.464;11.964;2023-11-19T00:48:47;3.80;;;3.40;;
46931;SDS011;32670;51.464;11.964;2023-11-19T00:51:12;5.07;;;4.03;;
46931;SDS011;32670;51.464;11.964;2023-11-19T00:53:38;4.87;;;3.00;;
46931;SDS011;32670;51.464;11.964;2023-11-19T00:56:03;5.17;;;3.20;;
46931;SDS011;32670;51.464;11.964;2023-11-19T00:58:29;4.63;;;2.93;;
46931;SDS011;32670;51.464;11.964;2023-11-19T01:00:55;4.07;;;3.40;;
46931;SDS011;32670;51.464;11.964;2023-11-19T01:03:22;5.10;;;3.53;;
46931;SDS011;32670;51.464;11.964;2023-11-19T01:05:47;7.93;;;3.60;;
46931;SDS011;32670;51.464;11.964;2023-11-19T01:08:13;7.13;;;3.77;;
46931;SDS011;32670;51.464;11.964;2023-11-19T01:10:39;4.50;;;3.33;;
46931;SDS011;32670;51.464;11.964;2023-11-19T01:13:05;5.87;;;3.30;;
46931;SDS011;32670;51.464;11.964;2023-11-19T01:15:31;7.27;;;3.33;;
46931;SDS011;32670;51.464;11.964;2023-11-19T01:17:57;4.90;;;3.30;;
46931;SDS011;32670;51.464;11.964;2023-11-19T01:20:22;5.63;;;3.73;;
46931;SDS011;32670;51.464;11.964;2023-11-19T01:22:48;4.97;;;3.50;;
46931;SDS011;32670;51.464;11.964;2023-11-19T01:25:14;6.17;;;3.53;;
46931;SDS011;32670;51.464;11.964;2023-11-19T01:27:39;4.30;;;2.97;;
46931;SDS011;32670;51.464;11.964;2023-11-19T01:30:05;4.43;;;3.33;;
46931;SDS011;32670;51.464;11.964;2023-11-19T01:32:34;4.83;;;3.20;;
46931;SDS011;32670;51.464;11.964;2023-11-19T01:35:01;4.20;;;3.00;;
46931;SDS011;32670;51.464;11.964;2023-11-19T01:37:29;6.70;;;3.20;;
46931;SDS011;32670;51.464;11.964;2023-11-19T01:39:54;4.13;;;2.80;;
46931;SDS011;32670;51.464;11.964;2023-11-19T01:42:20;3.43;;;3.13;;
46931;SDS011;32670;51.464;11.964;2023-11-19T01:44:55;4.00;;;3.60;;
46931;SDS011;32670;51.464;11.964;2023-11-19T01:47:26;5.30;;;3.40;;
46931;SDS011;32670;51.464;11.964;2023-11-19T01:49:53;6.40;;;3.43;;
46931;SDS011;32670;51.464;11.964;2023-11-19T01:52:21;4.10;;;3.17;;
46931;SDS011;32670;51.464;11.964;2023-11-19T01:54:47;5.47;;;3.30;;
46931;SDS011;32670;51.464;11.964;2023-11-19T01:57:13;3.83;;;3.03;;
46931;SDS011;32670;51.464;11.964;2023-11-19T01:59:39;4.00;;;3.37;;
46931;SDS011;32670;51.464;11.964;2023-11-19T02:02:05;3.97;;;3.00;;
46931;SDS011;32670;51.464;11.964;2023-11-19T02:04:31;4.17;;;3.20;;
46931;SDS011;32670;51.464;11.964;2023-11-19T02:06:57;4.20;;;3.20;;
46931;SDS011;32670;51.464;11.964;2023-11-19T02:09:24;3.80;;;3.03;;
46931;SDS011;32670;51.464;11.964;2023-11-19T02:11:49;5.23;;;3.10;;
46931;SDS011;32670;51.464;11.964;2023-11-19T02:14:16;5.90;;;3.17;;
46931;SDS011;32670;51.464;11.964;2023-11-19T02:16:42;3.90;;;3.13;;
46931;SDS011;32670;51.464;11.964;2023-11-19T02:19:08;3.57;;;3.23;;
46931;SDS011;32670;51.464;11.964;2023-11-19T02:21:35;3.20;;;2.90;;
46931;SDS011;32670;51.464;11.964;2023-11-19T02:24:05;7.83;;;3.30;;
46931;SDS011;32670;51.464;11.964;2023-11-19T02:29:14;3.77;;;2.93;;
46931;SDS011;32670;51.464;11.964;2023-11-19T02:31:40;5.73;;;3.33;;
46931;SDS011;32670;51.464;11.964;2023-11-19T02:34:05;3.53;;;2.90;;
46931;SDS011;32670;51.464;11.964;2023-11-19T02:36:31;3.43;;;2.60;;
46931;SDS011;32670;51.464;11.964;2023-11-19T02:38:57;5.83;;;3.03;;
46931;SDS011;32670;51.464;11.964;2023-11-19T02:41:23;6.20;;;3.10;;
46931;SDS011;32670;51.464;11.964;2023-11-19T02:43:49;3.53;;;3.00;;
46931;SDS011;32670;51.464;11.964;2023-11-19T02:46:14;3.73;;;2.67;;
46931;SDS011;32670;51.464;11.964;2023-11-19T02:48:42;6.20;;;2.70;;
46931;SDS011;32670;51.464;11.964;2023-11-19T02:51:09;5.00;;;3.33;;
46931;SDS011;32670;51.464;11.964;2023-11-19T02:53:35;5.77;;;2.60;;
46931;SDS011;32670;51.464;11.964;2023-11-19T02:56:02;7.07;;;2.90;;
46931;SDS011;32670;51.464;11.964;2023-11-19T02:58:36;4.13;;;2.87;;
46931;SDS011;32670;51.464;11.964;2023-11-19T03:01:02;4.00;;;2.77;;
46931;SDS011;32670;51.464;11.964;2023-11-19T03:03:37;5.77;;;2.90;;
46931;SDS011;32670;51.464;11.964;2023-11-19T03:06:05;3.70;;;2.80;;
46931;SDS011;32670;51.464;11.964;2023-11-19T03:08:31;4.47;;;2.90;;
46931;SDS011;32670;51.464;11.964;2023-11-19T03:10:58;5.27;;;3.40;;
46931;SDS011;32670;51.464;11.964;2023-11-19T03:13:24;6.23;;;3.33;;
46931;SDS011;32670;51.464;11.964;2023-11-19T03:15:49;3.97;;;2.87;;
46931;SDS011;32670;51.464;11.964;2023-11-19T03:18:15;6.17;;;3.13;;
46931;SDS011;32670;51.464;11.964;2023-11-19T03:20:40;4.13;;;2.67;;
46931;SDS011;32670;51.464;11.964;2023-11-19T03:23:06;7.47;;;3.20;;
46931;SDS011;32670;51.464;11.964;2023-11-19T03:25:31;3.53;;;3.20;;
46931;SDS011;32670;51.464;11.964;2023-11-19T03:28:01;7.33;;;3.30;;
46931;SDS011;32670;51.464;11.964;2023-11-19T03:30:28;3.23;;;2.90;;
46931;SDS011;32670;51.464;11.964;2023-11-19T03:32:55;4.23;;;3.07;;
46931;SDS011;32670;51.464;11.964;2023-11-19T03:35:20;5.40;;;3.20;;
46931;SDS011;32670;51.464;11.964;2023-11-19T03:37:46;3.87;;;2.90;;
46931;SDS011;32670;51.464;11.964;2023-11-19T03:40:12;8.00;;;2.97;;
46931;SDS011;32670;51.464;11.964;2023-11-19T03:42:37;3.20;;;2.90;;
46931;SDS011;32670;51.464;11.964;2023-11-19T03:45:04;4.20;;;2.90;;
46931;SDS011;32670;51.464;11.964;2023-11-19T03:47:33;4.77;;;2.83;;
46931;SDS011;32670;51.464;11.964;2023-11-19T03:50:02;3.93;;;2.70;;
46931;SDS011;32670;51.464;11.964;2023-11-19T03:52:28;3.67;;;3.07;;
46931;SDS011;32670;51.464;11.964;2023-11-19T03:54:56;3.47;;;2.87;;
46931;SDS011;32670;51.464;11.964;2023-11-19T03:57:22;3.53;;;2.90;;
46931;SDS011;32670;51.464;11.964;2023-11-19T03:59:52;3.40;;;3.10;;
46931;SDS011;32670;51.464;11.964;2023-11-19T04:02:20;3.37;;;2.87;;
46931;SDS011;32670;51.464;11.964;2023-11-19T04:04:46;4.37;;;2.90;;
46931;SDS011;32670;51.464;11.964;2023-11-19T04:07:11;3.90;;;2.80;;
46931;SDS011;32670;51.464;11.964;2023-11-19T04:09:37;8.93;;;3.03;;
46931;SDS011;32670;51.464;11.964;2023-11-19T04:12:02;7.33;;;3.57;;
46931;SDS011;32670;51.464;11.964;2023-11-19T04:14:28;6.27;;;3.30;;
46931;SDS011;32670;51.464;11.964;2023-11-19T04:16:54;4.67;;;3.00;;
46931;SDS011;32670;51.464;11.964;2023-11-19T04:19:20;3.90;;;3.03;;
46931;SDS011;32670;51.464;11.964;2023-11-19T04:21:45;3.30;;;3.00;;
46931;SDS011;32670;51.464;11.964;2023-11-19T04:24:11;3.67;;;3.20;;
46931;SDS011;32670;51.464;11.964;2023-11-19T04:26:43;5.13;;;3.40;;
46931;SDS011;32670;51.464;11.964;2023-11-19T04:29:13;5.33;;;3.10;;
46931;SDS011;32670;51.464;11.964;2023-11-19T04:31:41;4.20;;;3.07;;
46931;SDS011;32670;51.464;11.964;2023-11-19T04:34:08;4.27;;;3.10;;
46931;SDS011;32670;51.464;11.964;2023-11-19T04:36:33;3.73;;;2.90;;
46931;SDS011;32670;51.464;11.964;2023-11-19T04:38:59;3.33;;;2.90;;
46931;SDS011;32670;51.464;11.964;2023-11-19T04:41:26;4.67;;;2.90;;
46931;SDS011;32670;51.464;11.964;2023-11-19T04:43:55;4.70;;;2.97;;
46931;SDS011;32670;51.464;11.964;2023-11-19T04:46:21;5.47;;;2.93;;
46931;SDS011;32670;51.464;11.964;2023-11-19T04:48:46;4.73;;;3.10;;
46931;SDS011;32670;51.464;11.964;2023-11-19T04:51:12;3.80;;;2.83;;
46931;SDS011;32670;51.464;11.964;2023-11-19T04:53:37;3.43;;;2.93;;
46931;SDS011;32670;51.464;11.964;2023-11-19T04:56:12;5.90;;;2.60;;
46931;SDS011;32670;51.464;11.964;2023-11-19T04:58:38;3.13;;;2.70;;
46931;SDS011;32670;51.464;11.964;2023-11-19T05:01:04;8.23;;;2.90;;
46931;SDS011;32670;51.464;11.964;2023-11-19T05:03:30;6.87;;;3.50;;
46931;SDS011;32670;51.464;11.964;2023-11-19T05:05:56;3.50;;;2.70;;
46931;SDS011;32670;51.464;11.964;2023-11-19T05:08:22;5.73;;;3.30;;
46931;SDS011;32670;51.464;11.964;2023-11-19T05:10:47;3.40;;;3.10;;
46931;SDS011;32670;51.464;11.964;2023-11-19T05:13:13;4.87;;;2.90;;
46931;SDS011;32670;51.464;11.964;2023-11-19T05:15:39;3.57;;;2.77;;
46931;SDS011;32670;51.464;11.964;2023-11-19T05:18:04;6.97;;;3.03;;
46931;SDS011;32670;51.464;11.964;2023-11-19T05:20:30;4.40;;;2.87;;
46931;SDS011;32670;51.464;11.964;2023-11-19T05:22:56;4.97;;;2.77;;
46931;SDS011;32670;51.464;11.964;2023-11-19T05:25:21;6.20;;;3.03;;
46931;SDS011;32670;51.464;11.964;2023-11-19T05:27:47;3.37;;;2.60;;
46931;SDS011;32670;51.464;11.964;2023-11-19T05:30:12;3.63;;;2.63;;
46931;SDS011;32670;51.464;11.964;2023-11-19T05:32:38;3.00;;;2.40;;
46931;SDS011;32670;51.464;11.964;2023-11-19T05:35:03;3.97;;;2.87;;
46931;SDS011;32670;51.464;11.964;2023-11-19T05:37:29;3.57;;;2.67;;
46931;SDS011;32670;51.464;11.964;2023-11-19T05:39:55;4.87;;;2.67;;
46931;SDS011;32670;51.464;11.964;2023-11-19T05:42:20;4.60;;;2.60;;
46931;SDS011;32670;51.464;11.964;2023-11-19T05:44:46;6.40;;;2.43;;
46931;SDS011;32670;51.464;11.964;2023-11-19T05:47:11;3.47;;;2.80;;
46931;SDS011;32670;51.464;11.964;2023-11-19T05:49:37;3.53;;;2.57;;
46931;SDS011;32670;51.464;11.964;2023-11-19T05:52:03;3.20;;;2.57;;
46931;SDS011;32670;51.464;11.964;2023-11-19T05:54:32;5.30;;;2.93;;
46931;SDS011;32670;51.464;11.964;2023-11-19T05:57:02;3.57;;;2.23;;
46931;SDS011;32670;51.464;11.964;2023-11-19T05:59:34;3.10;;;2.80;;
46931;SDS011;32670;51.464;11.964;2023-11-19T06:02:00;4.10;;;2.60;;
46931;SDS011;32670;51.464;11.964;2023-11-19T06:04:25;6.37;;;2.70;;
46931;SDS011;32670;51.464;11.964;2023-11-19T06:06:51;4.33;;;3.07;;
46931;SDS011;32670;51.464;11.964;2023-11-19T06:09:16;3.60;;;2.43;;
46931;SDS011;32670;51.464;11.964;2023-11-19T06:11:43;4.60;;;3.00;;
46931;SDS011;32670;51.464;11.964;2023-11-19T06:14:09;4.73;;;2.50;;
46931;SDS011;32670;51.464;11.964;2023-11-19T06:16:35;4.20;;;2.70;;
46931;SDS011;32670;51.464;11.964;2023-11-19T06:19:01;4.00;;;2.43;;
46931;SDS011;32670;51.464;11.964;2023-11-19T06:21:27;2.50;;;2.30;;
46931;SDS011;32670;51.464;11.964;2023-11-19T06:23:52;3.80;;;2.60;;
46931;SDS011;32670;51.464;11.964;2023-11-19T06:26:18;4.50;;;2.40;;
46931;SDS011;32670;51.464;11.964;2023-11-19T06:28:43;4.03;;;2.80;;
46931;SDS011;32670;51.464;11.964;2023-11-19T06:31:09;4.27;;;2.33;;
46931;SDS011;32670;51.464;11.964;2023-11-19T06:33:35;3.10;;;2.40;;
46931;SDS011;32670;51.464;11.964;2023-11-19T06:36:00;4.73;;;2.80;;
46931;SDS011;32670;51.464;11.964;2023-11-19T06:38:26;4.00;;;2.63;;
46931;SDS011;32670;51.464;11.964;2023-11-19T06:40:51;4.13;;;2.40;;
46931;SDS011;32670;51.464;11.964;2023-11-19T06:43:17;2.63;;;2.30;;
46931;SDS011;32670;51.464;11.964;2023-11-19T06:45:42;4.17;;;2.40;;
46931;SDS011;32670;51.464;11.964;2023-11-19T06:48:08;3.20;;;2.30;;
46931;SDS011;32670;51.464;11.964;2023-11-19T06:50:33;2.60;;;2.40;;
46931;SDS011;32670;51.464;11.964;2023-11-19T06:52:59;2.50;;;2.30;;
46931;SDS011;32670;51.464;11.964;2023-11-19T06:55:25;3.50;;;2.43;;
46931;SDS011;32670;51.464;11.964;2023-11-19T06:57:51;2.87;;;2.40;;
46931;SDS011;32670;51.464;11.964;2023-11-19T07:00:17;4.73;;;2.50;;
46931;SDS011;32670;51.464;11.964;2023-11-19T07:02:43;3.20;;;2.60;;
46931;SDS011;32670;51.464;11.964;2023-11-19T07:05:09;7.10;;;2.57;;
46931;SDS011;32670;51.464;11.964;2023-11-19T07:07:35;4.43;;;1.87;;
46931;SDS011;32670;51.464;11.964;2023-11-19T07:10:00;4.37;;;1.40;;
46931;SDS011;32670;51.464;11.964;2023-11-19T07:12:27;1.60;;;1.10;;
46931;SDS011;32670;51.464;11.964;2023-11-19T07:14:53;1.60;;;0.90;;
46931;SDS011;32670;51.464;11.964;2023-11-19T07:17:20;1.10;;;0.90;;
46931;SDS011;32670;51.464;11.964;2023-11-19T07:19:46;0.83;;;0.73;;
46931;SDS011;32670;51.464;11.964;2023-11-19T07:22:12;0.77;;;0.77;;
46931;SDS011;32670;51.464;11.964;2023-11-19T07:24:40;0.60;;;0.50;;
46931;SDS011;32670;51.464;11.964;2023-11-19T07:27:06;1.17;;;0.53;;
46931;SDS011;32670;51.464;11.964;2023-11-19T07:29:33;2.40;;;1.00;;
46931;SDS011;32670;51.464;11.964;2023-11-19T07:31:59;1.87;;;0.90;;
46931;SDS011;32670;51.464;11.964;2023-11-19T07:34:26;2.13;;;0.83;;
46931;SDS011;32670;51.464;11.964;2023-11-19T07:36:52;1.13;;;0.70;;
46931;SDS011;32670;51.464;11.964;2023-11-19T07:39:17;1.07;;;0.70;;
46931;SDS011;32670;51.464;11.964;2023-11-19T07:41:43;1.30;;;0.60;;
46931;SDS011;32670;51.464;11.964;2023-11-19T07:44:08;1.23;;;0.50;;
46931;SDS011;32670;51.464;11.964;2023-11-19T07:46:34;0.70;;;0.50;;
46931;SDS011;32670;51.464;11.964;2023-11-19T07:49:00;2.10;;;0.60;;
46931;SDS011;32670;51.464;11.964;2023-11-19T07:51:27;1.00;;;0.77;;
46931;SDS011;32670;51.464;11.964;2023-11-19T07:53:53;1.30;;;0.80;;
46931;SDS011;32670;51.464;11.964;2023-11-19T07:56:18;1.07;;;0.77;;
46931;SDS011;32670;51.464;11.964;2023-11-19T07:58:44;0.77;;;0.63;;
46931;SDS011;32670;51.464;11.964;2023-11-19T08:01:09;1.57;;;0.70;;
46931;SDS011;32670;51.464;11.964;2023-11-19T08:03:35;1.33;;;0.70;;
46931;SDS011;32670;51.464;11.964;2023-11-19T08:06:00;9.57;;;1.33;;
46931;SDS011;32670;51.464;11.964;2023-11-19T08:08:26;10.77;;;1.20;;
46931;SDS011;32670;51.464;11.964;2023-11-19T08:10:54;8.70;;;1.77;;
46931;SDS011;32670;51.464;11.964;2023-11-19T08:13:21;11.37;;;1.67;;
46931;SDS011;32670;51.464;11.964;2023-11-19T08:15:48;7.80;;;1.77;;
46931;SDS011;32670;51.464;11.964;2023-11-19T08:18:13;6.23;;;1.33;;
46931;SDS011;32670;51.464;11.964;2023-11-19T08:20:39;9.37;;;1.73;;
46931;SDS011;32670;51.464;11.964;2023-11-19T08:23:04;5.90;;;1.80;;
46931;SDS011;32670;51.464;11.964;2023-11-19T08:25:31;4.50;;;1.80;;
46931;SDS011;32670;51.464;11.964;2023-11-19T08:27:57;2.97;;;1.67;;
46931;SDS011;32670;51.464;11.964;2023-11-19T08:30:23;5.70;;;1.80;;
46931;SDS011;32670;51.464;11.964;2023-11-19T08:32:48;7.37;;;2.30;;
46931;SDS011;32670;51.464;11.964;2023-11-19T08:35:14;5.57;;;2.33;;
46931;SDS011;32670;51.464;11.964;2023-11-19T08:37:41;5.73;;;2.20;;
46931;SDS011;32670;51.464;11.964;2023-11-19T08:40:07;3.40;;;2.10;;
46931;SDS011;32670;51.464;11.964;2023-11-19T08:42:33;3.60;;;2.30;;
46931;SDS011;32670;51.464;11.964;2023-11-19T08:44:58;2.97;;;1.83;;
46931;SDS011;32670;51.464;11.964;2023-11-19T08:47:24;2.87;;;2.07;;
46931;SDS011;32670;51.464;11.964;2023-11-19T08:49:52;3.80;;;2.20;;
46931;SDS011;32670;51.464;11.964;2023-11-19T08:52:18;4.50;;;3.20;;
46931;SDS011;32670;51.464;11.964;2023-11-19T08:54:44;3.37;;;3.07;;
46931;SDS011;32670;51.464;11.964;2023-11-19T08:57:09;4.77;;;3.37;;
46931;SDS011;32670;51.464;11.964;2023-11-19T08:59:35;3.27;;;2.30;;
46931;SDS011;32670;51.464;11.964;2023-11-19T09:02:02;4.77;;;2.63;;
46931;SDS011;32670;51.464;11.964;2023-11-19T09:04:28;4.97;;;3.40;;
46931;SDS011;32670;51.464;11.964;2023-11-19T09:06:54;4.43;;;2.77;;
46931;SDS011;32670;51.464;11.964;2023-11-19T09:09:20;6.13;;;5.53;;
46931;SDS011;32670;51.464;11.964;2023-11-19T09:11:46;5.87;;;5.10;;
46931;SDS011;32670;51.464;11.964;2023-11-19T09:14:11;5.80;;;4.67;;
46931;SDS011;32670;51.464;11.964;2023-11-19T09:16:37;5.00;;;4.50;;
46931;SDS011;32670;51.464;11.964;2023-11-19T09:19:03;5.00;;;4.53;;
46931;SDS011;32670;51.464;11.964;2023-11-19T09:21:28;4.27;;;3.87;;
46931;SDS011;32670;51.464;11.964;2023-11-19T09:23:59;4.50;;;4.10;;
46931;SDS011;32670;51.464;11.964;2023-11-19T09:26:24;5.10;;;4.23;;
46931;SDS011;32670;51.464;11.964;2023-11-19T09:28:50;5.07;;;4.53;;
46931;SDS011;32670;51.464;11.964;2023-11-19T09:31:16;4.67;;;4.27;;
46931;SDS011;32670;51.464;11.964;2023-11-19T09:33:42;4.40;;;4.00;;
46931;SDS011;32670;51.464;11.964;2023-11-19T09:36:08;5.67;;;4.20;;
46931;SDS011;32670;51.464;11.964;2023-11-19T09:38:35;4.57;;;3.93;;
46931;SDS011;32670;51.464;11.964;2023-11-19T09:41:04;5.03;;;4.50;;
46931;SDS011;32670;51.464;11.964;2023-11-19T09:43:33;4.73;;;4.20;;
46931;SDS011;32670;51.464;11.964;2023-11-19T09:45:59;5.17;;;4.67;;
46931;SDS011;32670;51.464;11.964;2023-11-19T09:48:34;5.37;;;4.80;;
46931;SDS011;32670;51.464;11.964;2023-11-19T09:51:02;5.90;;;5.13;;
46931;SDS011;32670;51.464;11.964;2023-11-19T09:53:27;4.30;;;3.90;;
46931;SDS011;32670;51.464;11.964;2023-11-19T09:55:53;4.93;;;4.30;;
46931;SDS011;32670;51.464;11.964;2023-11-19T09:58:20;5.47;;;4.93;;
46931;SDS011;32670;51.464;11.964;2023-11-19T10:00:47;4.80;;;4.37;;
46931;SDS011;32670;51.464;11.964;2023-11-19T10:03:13;5.50;;;4.00;;
46931;SDS011;32670;51.464;11.964;2023-11-19T10:05:39;6.03;;;5.40;;
46931;SDS011;32670;51.464;11.964;2023-11-19T10:08:05;6.70;;;5.23;;
46931;SDS011;32670;51.464;11.964;2023-11-19T10:10:31;5.60;;;4.17;;
46931;SDS011;32670;51.464;11.964;2023-11-19T10:12:57;5.67;;;5.10;;
46931;SDS011;32670;51.464;11.964;2023-11-19T10:15:23;5.00;;;4.50;;
46931;SDS011;32670;51.464;11.964;2023-11-19T10:17:51;4.80;;;4.40;;
46931;SDS011;32670;51.464;11.964;2023-11-19T10:20:17;4.73;;;4.23;;
46931;SDS011;32670;51.464;11.964;2023-11-19T10:22:42;4.97;;;4.47;;
46931;SDS011;32670;51.464;11.964;2023-11-19T10:25:21;4.87;;;4.30;;
46931;SDS011;32670;51.464;11.964;2023-11-19T10:27:48;4.47;;;4.00;;
46931;SDS011;32670;51.464;11.964;2023-11-19T10:30:17;4.10;;;3.70;;
46931;SDS011;32670;51.464;11.964;2023-11-19T10:33:03;5.50;;;4.00;;
46931;SDS011;32670;51.464;11.964;2023-11-19T10:35:36;4.23;;;3.83;;
46931;SDS011;32670;51.464;11.964;2023-11-19T10:38:17;3.67;;;3.37;;
46931;SDS011;32670;51.464;11.964;2023-11-19T10:40:42;3.63;;;3.33;;
46931;SDS011;32670;51.464;11.964;2023-11-19T10:43:08;3.80;;;3.33;;
46931;SDS011;32670;51.464;11.964;2023-11-19T10:45:34;3.13;;;2.83;;
46931;SDS011;32670;51.464;11.964;2023-11-19T10:48:02;3.70;;;3.27;;
46931;SDS011;32670;51.464;11.964;2023-11-19T10:50:31;3.53;;;3.00;;
46931;SDS011;32670;51.464;11.964;2023-11-19T10:53:01;3.27;;;2.97;;
46931;SDS011;32670;51.464;11.964;2023-11-19T10:55:28;3.53;;;2.90;;
46931;SDS011;32670;51.464;11.964;2023-11-19T10:58:08;3.87;;;3.20;;
46931;SDS011;32670;51.464;11.964;2023-11-19T11:00:43;4.40;;;2.83;;
46931;SDS011;32670;51.464;11.964;2023-11-19T11:03:24;2.93;;;2.67;;
46931;SDS011;32670;51.464;11.964;2023-11-19T11:05:51;3.40;;;2.53;;
46931;SDS011;32670;51.464;11.964;2023-11-19T11:08:17;3.60;;;2.70;;
46931;SDS011;32670;51.464;11.964;2023-11-19T11:10:54;4.17;;;2.77;;
46931;SDS011;32670;51.464;11.964;2023-11-19T11:13:22;3.93;;;3.23;;
46931;SDS011;32670;51.464;11.964;2023-11-19T11:15:49;6.37;;;2.90;;
46931;SDS011;32670;51.464;11.964;2023-11-19T11:18:15;3.60;;;2.80;;
46931;SDS011;32670;51.464;11.964;2023-11-19T11:20:42;3.00;;;2.50;;
46931;SDS011;32670;51.464;11.964;2023-11-19T11:23:58;3.43;;;2.50;;
46931;SDS011;32670;51.464;11.964;2023-11-19T11:34:41;3.20;;;2.60;;
46931;SDS011;32670;51.464;11.964;2023-11-19T11:37:19;2.70;;;2.50;;
46931;SDS011;32670;51.464;11.964;2023-11-19T11:39:51;3.23;;;2.50;;
46931;SDS011;32670;51.464;11.964;2023-11-19T11:50:15;4.37;;;2.60;;
46931;SDS011;32670;51.464;11.964;2023-11-19T11:55:27;4.07;;;3.10;;
46931;SDS011;32670;51.464;11.964;2023-11-19T11:57:58;4.87;;;3.40;;
46931;SDS011;32670;51.464;11.964;2023-11-19T12:00:30;5.43;;;4.30;;
46931;SDS011;32670;51.464;11.964;2023-11-19T12:02:57;5.03;;;3.57;;
46931;SDS011;32670;51.464;11.964;2023-11-19T12:05:25;5.63;;;3.70;;
46931;SDS011;32670;51.464;11.964;2023-11-19T12:07:54;4.97;;;3.50;;
46931;SDS011;32670;51.464;11.964;2023-11-19T12:10:37;6.60;;;4.33;;
46931;SDS011;32670;51.464;11.964;2023-11-19T12:13:08;6.70;;;4.60;;
46931;SDS011;32670;51.464;11.964;2023-11-19T12:15:54;6.70;;;4.20;;
46931;SDS011;32670;51.464;11.964;2023-11-19T12:20:56;5.77;;;4.00;;
46931;SDS011;32670;51.464;11.964;2023-11-19T12:23:25;6.13;;;4.43;;
46931;SDS011;32670;51.464;11.964;2023-11-19T12:25:51;7.23;;;5.00;;
46931;SDS011;32670;51.464;11.964;2023-11-19T12:28:17;6.07;;;5.07;;
46931;SDS011;32670;51.464;11.964;2023-11-19T12:30:43;9.30;;;4.90;;
46931;SDS011;32670;51.464;11.964;2023-11-19T12:33:09;8.23;;;5.00;;
46931;SDS011;32670;51.464;11.964;2023-11-19T12:35:42;7.77;;;5.13;;
46931;SDS011;32670;51.464;11.964;2023-11-19T12:38:21;8.43;;;5.30;;
46931;SDS011;32670;51.464;11.964;2023-11-19T12:41:07;6.67;;;4.63;;
46931;SDS011;32670;51.464;11.964;2023-11-19T12:43:36;8.27;;;5.80;;
46931;SDS011;32670;51.464;11.964;2023-11-19T12:46:03;7.30;;;5.67;;
46931;SDS011;32670;51.464;11.964;2023-11-19T12:48:41;7.20;;;5.70;;
46931;SDS011;32670;51.464;11.964;2023-11-19T12:51:07;9.27;;;7.70;;
46931;SDS011;32670;51.464;11.964;2023-11-19T12:53:46;11.63;;;8.63;;
46931;SDS011;32670;51.464;11.964;2023-11-19T12:56:17;9.27;;;7.20;;
46931;SDS011;32670;51.464;11.964;2023-11-19T12:58:42;8.00;;;7.00;;
46931;SDS011;32670;51.464;11.964;2023-11-19T13:01:08;8.00;;;6.47;;
46931;SDS011;32670;51.464;11.964;2023-11-19T13:03:37;12.20;;;8.20;;
46931;SDS011;32670;51.464;11.964;2023-11-19T13:06:07;9.17;;;7.07;;
46931;SDS011;32670;51.464;11.964;2023-11-19T13:08:42;9.27;;;7.40;;
46931;SDS011;32670;51.464;11.964;2023-11-19T13:11:11;8.90;;;7.60;;
46931;SDS011;32670;51.464;11.964;2023-11-19T13:16:23;9.50;;;7.40;;
46931;SDS011;32670;51.464;11.964;2023-11-19T13:18:48;7.73;;;6.83;;
46931;SDS011;32670;51.464;11.964;2023-11-19T13:21:14;8.87;;;7.03;;
46931;SDS011;32670;51.464;11.964;2023-11-19T13:23:39;8.43;;;7.07;;
46931;SDS011;32670;51.464;11.964;2023-11-19T13:26:05;8.80;;;7.27;;
46931;SDS011;32670;51.464;11.964;2023-11-19T13:28:31;8.07;;;7.10;;
46931;SDS011;32670;51.464;11.964;2023-11-19T13:30:56;9.83;;;7.67;;
46931;SDS011;32670;51.464;11.964;2023-11-19T13:33:23;7.97;;;6.97;;
46931;SDS011;32670;51.464;11.964;2023-11-19T13:35:48;8.73;;;7.83;;
46931;SDS011;32670;51.464;11.964;2023-11-19T13:38:13;9.70;;;7.43;;
46931;SDS011;32670;51.464;11.964;2023-11-19T13:40:39;8.73;;;7.33;;
46931;SDS011;32670;51.464;11.964;2023-11-19T13:43:05;8.70;;;6.73;;
46931;SDS011;32670;51.464;11.964;2023-11-19T13:45:31;7.77;;;6.90;;
46931;SDS011;32670;51.464;11.964;2023-11-19T13:47:57;7.87;;;7.07;;
46931;SDS011;32670;51.464;11.964;2023-11-19T13:50:22;7.37;;;6.60;;
46931;SDS011;32670;51.464;11.964;2023-11-19T13:52:48;8.73;;;7.20;;
46931;SDS011;32670;51.464;11.964;2023-11-19T13:55:14;12.20;;;9.30;;
46931;SDS011;32670;51.464;11.964;2023-11-19T13:57:40;9.37;;;8.40;;
46931;SDS011;32670;51.464;11.964;2023-11-19T14:00:07;9.50;;;8.00;;
46931;SDS011;32670;51.464;11.964;2023-11-19T14:02:52;8.97;;;8.07;;
46931;SDS011;32670;51.464;11.964;2023-11-19T14:05:18;8.90;;;8.00;;
46931;SDS011;32670;51.464;11.964;2023-11-19T14:07:44;9.00;;;8.10;;
46931;SDS011;32670;51.464;11.964;2023-11-19T14:10:13;8.00;;;7.20;;
46931;SDS011;32670;51.464;11.964;2023-11-19T14:12:40;8.47;;;7.57;;
46931;SDS011;32670;51.464;11.964;2023-11-19T14:15:06;9.77;;;7.97;;
46931;SDS011;32670;51.464;11.964;2023-11-19T14:17:34;8.67;;;7.77;;
46931;SDS011;32670;51.464;11.964;2023-11-19T14:20:03;8.73;;;7.83;;
46931;SDS011;32670;51.464;11.964;2023-11-19T14:22:39;9.60;;;7.77;;
46931;SDS011;32670;51.464;11.964;2023-11-19T14:25:11;8.93;;;7.90;;
46931;SDS011;32670;51.464;11.964;2023-11-19T14:27:37;8.33;;;7.53;;
46931;SDS011;32670;51.464;11.964;2023-11-19T14:30:07;8.57;;;7.27;;
46931;SDS011;32670;51.464;11.964;2023-11-19T14:32:37;8.63;;;7.70;;
46931;SDS011;32670;51.464;11.964;2023-11-19T14:35:04;9.47;;;7.63;;
46931;SDS011;32670;51.464;11.964;2023-11-19T14:37:30;8.03;;;7.23;;
46931;SDS011;32670;51.464;11.964;2023-11-19T14:39:58;8.10;;;7.30;;
46931;SDS011;32670;51.464;11.964;2023-11-19T14:42:25;8.60;;;7.47;;
46931;SDS011;32670;51.464;11.964;2023-11-19T14:44:51;7.80;;;7.10;;
46931;SDS011;32670;51.464;11.964;2023-11-19T14:47:18;7.87;;;7.07;;
46931;SDS011;32670;51.464;11.964;2023-11-19T14:49:44;8.57;;;7.57;;
46931;SDS011;32670;51.464;11.964;2023-11-19T14:52:09;8.17;;;7.37;;
46931;SDS011;32670;51.464;11.964;2023-11-19T14:54:35;7.90;;;7.10;;
46931;SDS011;32670;51.464;11.964;2023-11-19T14:57:01;8.40;;;7.60;;
46931;SDS011;32670;51.464;11.964;2023-11-19T14:59:28;8.90;;;8.00;;